createdAt,value
2018-02-13T00:01:50.595Z,14.43
2018-02-13T00:04:17.161Z,16.67
2018-02-13T00:06:43.739Z,23.27
2018-02-13T00:09:10.342Z,22.90
2018-02-13T00:11:36.919Z,14.63
2018-02-13T00:14:03.494Z,17.77
2018-02-13T00:16:30.074Z,19.65
2018-02-13T00:18:56.651Z,15.50
2018-02-13T00:21:23.242Z,18.27
2018-02-13T00:23:49.817Z,15.88
2018-02-13T00:26:16.395Z,16.75
2018-02-13T00:28:43.283Z,24.35
2018-02-13T00:31:09.863Z,21.85
2018-02-13T00:33:36.439Z,19.65
2018-02-13T00:36:03.218Z,19.62
2018-02-13T00:38:29.803Z,15.25
2018-02-13T00:40:56.403Z,21.67
2018-02-13T00:43:22.999Z,24.92
2018-02-13T00:45:49.575Z,19.02
2018-02-13T00:48:16.150Z,27.13
2018-02-13T00:50:42.739Z,17.05
2018-02-13T00:53:09.323Z,27.05
2018-02-13T00:55:35.902Z,16.55
2018-02-13T00:58:02.499Z,19.35
2018-02-13T01:00:29.083Z,22.62
2018-02-13T01:02:55.658Z,22.00
2018-02-13T01:05:22.341Z,17.17
2018-02-13T01:07:48.922Z,18.55
2018-02-13T01:10:15.503Z,21.30
2018-02-13T01:12:42.110Z,18.73
2018-02-13T01:15:08.693Z,30.90
2018-02-13T01:17:35.318Z,18.87
2018-02-13T01:20:01.878Z,23.50
2018-02-13T01:22:28.464Z,26.42
2018-02-13T01:24:55.038Z,21.23
2018-02-13T01:27:21.647Z,24.60
2018-02-13T01:29:48.230Z,19.48
2018-02-13T01:32:14.806Z,24.08
2018-02-13T01:34:41.387Z,21.75
2018-02-13T01:37:07.972Z,28.10
2018-02-13T01:39:34.561Z,21.05
2018-02-13T01:42:01.148Z,19.80
2018-02-13T01:44:27.722Z,25.55
2018-02-13T01:46:54.306Z,25.83
2018-02-13T01:49:21.008Z,23.15
2018-02-13T01:51:47.578Z,21.05
2018-02-13T01:54:14.150Z,22.10
2018-02-13T01:56:40.746Z,26.73
2018-02-13T01:59:07.326Z,22.20
2018-02-13T02:01:33.906Z,26.15
2018-02-13T02:04:00.510Z,21.40
2018-02-13T02:06:27.094Z,23.33
2018-02-13T02:08:53.667Z,28.62
2018-02-13T02:11:20.570Z,26.15
2018-02-13T02:13:47.175Z,22.05
2018-02-13T02:16:13.739Z,21.62
2018-02-13T02:18:40.338Z,23.10
2018-02-13T02:21:06.924Z,30.73
2018-02-13T02:23:33.498Z,25.05
2018-02-13T02:26:00.082Z,24.05
2018-02-13T02:28:27.039Z,22.30
2018-02-13T02:30:53.618Z,27.35
2018-02-13T02:33:20.198Z,24.60
2018-02-13T02:35:46.808Z,24.70
2018-02-13T02:38:13.396Z,23.65
2018-02-13T02:40:39.971Z,24.02
2018-02-13T02:43:06.563Z,33.35
2018-02-13T02:45:33.130Z,20.30
2018-02-13T02:47:59.719Z,21.77
2018-02-13T02:50:26.324Z,22.77
2018-02-13T02:52:52.899Z,27.42
2018-02-13T02:55:19.491Z,26.77
2018-02-13T02:57:46.362Z,25.17
2018-02-13T03:00:12.939Z,22.30
2018-02-13T03:02:39.513Z,25.48
2018-02-13T03:05:06.375Z,24.10
2018-02-13T03:07:32.955Z,30.33
2018-02-13T03:09:59.539Z,21.00
2018-02-13T03:12:26.139Z,28.30
2018-02-13T03:14:52.718Z,23.87
2018-02-13T03:17:19.299Z,23.33
2018-02-13T03:19:46.086Z,21.12
2018-02-13T03:22:12.659Z,26.48
2018-02-13T03:24:39.238Z,29.33
2018-02-13T03:27:05.822Z,25.70
2018-02-13T03:29:32.406Z,34.33
2018-02-13T03:31:59.257Z,28.62
2018-02-13T03:34:25.843Z,24.25
2018-02-13T03:36:52.422Z,25.75
2018-02-13T03:39:19.018Z,23.38
2018-02-13T03:41:45.595Z,22.70
2018-02-13T03:44:12.170Z,23.08
2018-02-13T03:46:38.774Z,24.90
2018-02-13T03:49:05.355Z,23.77
2018-02-13T03:51:31.931Z,28.33
2018-02-13T03:53:58.520Z,24.37
2018-02-13T03:56:25.099Z,27.13
2018-02-13T03:58:51.678Z,23.00
2018-02-13T04:01:18.388Z,27.45
2018-02-13T04:03:44.970Z,26.50
2018-02-13T04:06:11.551Z,26.00
2018-02-13T04:08:38.146Z,26.95
2018-02-13T04:11:04.726Z,26.42
2018-02-13T04:13:31.308Z,23.40
2018-02-13T04:15:57.901Z,24.40
2018-02-13T04:18:24.486Z,23.60
2018-02-13T04:20:51.063Z,26.50
2018-02-13T04:23:17.922Z,30.25
2018-02-13T04:25:44.503Z,27.83
2018-02-13T04:28:11.083Z,35.85
2018-02-13T04:30:37.678Z,28.42
2018-02-13T04:33:04.260Z,26.45
2018-02-13T04:35:30.845Z,27.45
2018-02-13T04:37:57.432Z,30.27
2018-02-13T04:40:24.014Z,36.80
2018-02-13T04:42:50.587Z,31.12
2018-02-13T04:45:17.206Z,27.80
2018-02-13T04:47:43.783Z,30.37
2018-02-13T04:50:10.366Z,32.03
2018-02-13T04:52:36.954Z,23.23
2018-02-13T04:55:03.542Z,33.70
2018-02-13T04:57:30.110Z,25.42
2018-02-13T04:59:56.706Z,25.10
2018-02-13T05:02:23.290Z,23.08
2018-02-13T05:04:49.875Z,27.23
2018-02-13T05:07:16.730Z,32.03
2018-02-13T05:09:43.314Z,33.53
2018-02-13T05:12:09.895Z,28.30
2018-02-13T05:14:36.843Z,28.80
2018-02-13T05:17:03.422Z,25.27
2018-02-13T05:19:29.999Z,32.53
2018-02-13T05:21:56.583Z,35.40
2018-02-13T05:24:23.160Z,23.92
2018-02-13T05:26:49.758Z,25.27
2018-02-13T05:29:16.347Z,34.72
2018-02-13T05:31:42.927Z,37.13
2018-02-13T05:34:09.526Z,30.15
2018-02-13T05:36:36.099Z,27.55
2018-02-13T05:39:02.687Z,27.20
2018-02-13T05:41:29.634Z,38.83
2018-02-13T05:43:56.222Z,34.20
2018-02-13T05:46:22.790Z,26.17
2018-02-13T05:48:49.639Z,36.70
2018-02-13T05:51:16.214Z,36.00
2018-02-13T05:53:42.795Z,31.67
2018-02-13T05:56:09.792Z,29.08
2018-02-13T05:58:36.373Z,29.70
2018-02-13T06:01:02.956Z,35.00
2018-02-13T06:03:29.555Z,29.30
2018-02-13T06:05:56.135Z,30.45
2018-02-13T06:08:22.715Z,32.75
2018-02-13T06:10:49.679Z,38.20
2018-02-13T06:13:16.249Z,33.03
2018-02-13T06:15:42.835Z,36.03
2018-02-13T06:18:09.434Z,32.90
2018-02-13T06:20:36.015Z,35.53
2018-02-13T06:23:02.594Z,35.58
2018-02-13T06:25:29.184Z,32.60
2018-02-13T06:27:55.778Z,31.77
2018-02-13T06:30:23.278Z,27.58
2018-02-13T06:32:49.854Z,30.58
2018-02-13T06:35:16.434Z,28.85
2018-02-13T06:37:43.046Z,29.75
2018-02-13T06:40:09.627Z,25.40
2018-02-13T06:42:36.212Z,32.55
2018-02-13T06:45:02.981Z,37.55
2018-02-13T06:47:29.563Z,32.88
2018-02-13T06:49:56.139Z,36.63
2018-02-13T06:52:22.758Z,29.52
2018-02-13T06:54:49.333Z,30.65
2018-02-13T06:57:15.918Z,36.35
2018-02-13T06:59:42.494Z,29.58
2018-02-13T07:02:09.076Z,30.17
2018-02-13T07:04:35.653Z,35.47
2018-02-13T07:07:02.242Z,32.67
2018-02-13T07:09:28.827Z,36.33
2018-02-13T07:11:55.411Z,32.53
2018-02-13T07:14:22.091Z,32.33
2018-02-13T07:16:48.667Z,38.10
2018-02-13T07:19:15.254Z,35.72
2018-02-13T07:21:41.839Z,33.92
2018-02-13T07:24:08.424Z,40.70
2018-02-13T07:26:35.014Z,40.58
2018-02-13T07:29:01.593Z,35.20
2018-02-13T07:31:28.175Z,32.08
2018-02-13T07:33:54.775Z,37.30
2018-02-13T07:36:21.351Z,34.20
2018-02-13T07:38:47.940Z,38.70
2018-02-13T07:41:14.522Z,42.67
2018-02-13T07:43:41.102Z,40.00
2018-02-13T07:46:08.245Z,38.47
2018-02-13T07:48:35.215Z,40.40
2018-02-13T07:51:01.795Z,43.47
2018-02-13T07:53:28.375Z,45.63
2018-02-13T07:55:55.062Z,40.00
2018-02-13T07:58:21.634Z,46.75
2018-02-13T08:00:48.217Z,36.13
2018-02-13T08:03:14.820Z,41.92
2018-02-13T08:05:41.391Z,44.38
2018-02-13T08:08:07.971Z,46.78
2018-02-13T08:10:34.839Z,43.28
2018-02-13T08:13:01.415Z,39.80
2018-02-13T08:15:27.994Z,39.53
2018-02-13T08:17:54.573Z,38.85
2018-02-13T08:20:21.151Z,37.85
2018-02-13T08:22:47.739Z,39.42
2018-02-13T08:25:14.751Z,44.35
2018-02-13T08:27:41.327Z,38.20
2018-02-13T08:30:07.903Z,41.10
2018-02-13T08:32:35.477Z,34.88
2018-02-13T08:35:02.055Z,36.17
2018-02-13T08:37:28.634Z,44.85
2018-02-13T08:39:55.539Z,43.03
2018-02-13T08:42:22.115Z,39.55
2018-02-13T08:44:48.694Z,40.63
2018-02-13T08:47:15.318Z,37.58
2018-02-13T08:49:41.894Z,45.22
2018-02-13T08:52:08.475Z,39.65
2018-02-13T08:54:35.091Z,40.55
2018-02-13T08:57:01.939Z,34.70
2018-02-13T08:59:28.523Z,34.00
2018-02-13T09:01:55.115Z,31.83
2018-02-13T09:04:21.706Z,37.47
2018-02-13T09:06:48.351Z,31.95
2018-02-13T09:09:15.078Z,32.78
2018-02-13T09:11:41.671Z,28.92
2018-02-13T09:14:08.270Z,28.95
2018-02-13T09:16:35.127Z,32.95
2018-02-13T09:19:01.713Z,45.50
2018-02-13T09:21:28.295Z,31.90
2018-02-13T09:23:54.915Z,27.50
2018-02-13T09:26:21.499Z,31.60
2018-02-13T09:28:48.090Z,29.25
2018-02-13T09:31:15.251Z,26.37
2018-02-13T09:33:41.833Z,35.25
2018-02-13T09:36:08.421Z,26.75
2018-02-13T09:38:35.002Z,26.30
2018-02-13T09:41:01.898Z,34.67
2018-02-13T09:43:28.541Z,28.45
2018-02-13T09:45:55.074Z,24.83
2018-02-13T09:48:21.686Z,27.03
2018-02-13T09:50:48.262Z,32.22
2018-02-13T09:53:14.845Z,29.13
2018-02-13T09:55:41.536Z,26.13
2018-02-13T09:58:08.118Z,28.37
2018-02-13T10:00:34.694Z,24.60
2018-02-13T10:03:01.314Z,31.35
2018-02-13T10:05:27.890Z,30.53
2018-02-13T10:07:54.466Z,31.07
2018-02-13T10:10:21.213Z,26.77
2018-02-13T10:12:47.795Z,28.60
2018-02-13T10:15:14.603Z,32.13
2018-02-13T10:17:41.205Z,33.57
2018-02-13T10:20:07.778Z,25.90
2018-02-13T10:22:34.364Z,27.73
2018-02-13T10:25:00.962Z,31.13
2018-02-13T10:27:28.176Z,25.63
2018-02-13T10:29:54.761Z,21.10
2018-02-13T10:32:21.353Z,22.00
2018-02-13T10:34:47.938Z,23.30
2018-02-13T10:37:14.522Z,22.90
2018-02-13T10:39:41.121Z,23.97
2018-02-13T10:42:07.694Z,23.07
2018-02-13T10:44:34.272Z,21.57
2018-02-13T10:47:00.851Z,18.57
2018-02-13T10:49:27.427Z,23.20
2018-02-13T10:51:54.036Z,21.20
2018-02-13T10:54:20.615Z,19.77
2018-02-13T10:56:47.191Z,29.13
2018-02-13T10:59:13.792Z,22.20
2018-02-13T11:01:40.367Z,21.37
2018-02-13T11:04:06.939Z,20.77
2018-02-13T11:06:33.534Z,19.27
2018-02-13T11:09:00.107Z,20.77
2018-02-13T11:11:26.686Z,19.47
2018-02-13T11:13:53.522Z,21.53
2018-02-13T11:16:20.108Z,18.37
2018-02-13T11:18:46.679Z,24.03
2018-02-13T11:21:13.455Z,21.17
2018-02-13T11:23:40.043Z,23.00
2018-02-13T11:26:06.617Z,26.57
2018-02-13T11:28:33.209Z,27.30
2018-02-13T11:30:59.790Z,22.50
2018-02-13T11:33:26.363Z,24.67
2018-02-13T11:35:52.979Z,30.10
2018-02-13T11:38:19.554Z,46.27
2018-02-13T11:40:46.127Z,22.40
2018-02-13T11:43:13.158Z,23.10
2018-02-13T11:45:39.715Z,24.10
2018-02-13T11:48:06.295Z,22.77
2018-02-13T11:50:33.166Z,23.37
2018-02-13T11:52:59.727Z,26.63
2018-02-13T11:55:26.302Z,37.73
2018-02-13T11:57:52.910Z,23.30
2018-02-13T12:00:19.496Z,24.23
2018-02-13T12:02:46.067Z,24.73
2018-02-13T12:05:12.675Z,23.30
2018-02-13T12:07:39.254Z,23.63
2018-02-13T12:10:05.829Z,17.30
2018-02-13T12:12:32.415Z,17.83
2018-02-13T12:14:58.989Z,21.13
2018-02-13T12:17:25.570Z,19.27
2018-02-13T12:19:52.166Z,17.50
2018-02-13T12:22:18.751Z,17.60
2018-02-13T12:24:45.338Z,14.07
2018-02-13T12:27:12.112Z,17.33
2018-02-13T12:29:38.683Z,21.87
2018-02-13T12:32:05.263Z,14.83
2018-02-13T12:34:31.851Z,17.73
2018-02-13T12:36:58.432Z,16.13
2018-02-13T12:39:25.002Z,14.67
2018-02-13T12:41:51.680Z,17.07
2018-02-13T12:44:18.258Z,11.87
2018-02-13T12:46:44.826Z,12.63
2018-02-13T12:49:11.438Z,10.60
2018-02-13T12:51:38.002Z,11.23
2018-02-13T12:54:04.579Z,12.20
2018-02-13T12:56:31.174Z,11.20
2018-02-13T12:58:57.750Z,11.63
2018-02-13T13:01:24.332Z,16.40
2018-02-13T13:03:51.010Z,11.97
2018-02-13T13:06:17.586Z,12.47
2018-02-13T13:08:44.160Z,14.23
2018-02-13T13:11:10.728Z,10.47
2018-02-13T13:13:37.299Z,9.90
2018-02-13T13:16:03.898Z,9.23
2018-02-13T13:18:30.475Z,13.40
2018-02-13T13:20:57.091Z,11.30
2018-02-13T13:23:23.658Z,9.70
2018-02-13T13:25:50.235Z,12.10
2018-02-13T13:28:16.811Z,11.73
2018-02-13T13:30:43.406Z,13.10
2018-02-13T13:33:09.983Z,8.87
2018-02-13T13:35:36.560Z,9.03
2018-02-13T13:38:03.168Z,8.77
2018-02-13T13:40:29.729Z,10.47
2018-02-13T13:42:56.306Z,8.63
2018-02-13T13:45:23.326Z,10.63
2018-02-13T13:47:49.886Z,9.47
2018-02-13T13:50:16.463Z,11.07
2018-02-13T13:52:43.066Z,8.97
2018-02-13T13:55:09.640Z,11.63
2018-02-13T13:57:36.207Z,7.33
2018-02-13T14:00:02.795Z,11.13
2018-02-13T14:02:29.374Z,9.20
2018-02-13T14:04:55.938Z,7.23
2018-02-13T14:07:22.855Z,8.53
2018-02-13T14:09:49.422Z,10.20
2018-02-13T14:12:15.991Z,8.63
2018-02-13T14:14:42.862Z,14.60
2018-02-13T14:17:09.438Z,9.10
2018-02-13T14:19:36.079Z,7.60
2018-02-13T14:22:02.758Z,8.10
2018-02-13T14:24:29.333Z,9.23
2018-02-13T14:26:55.926Z,11.47
2018-02-13T14:29:22.509Z,7.77
2018-02-13T14:31:49.074Z,8.67
2018-02-13T14:34:15.646Z,8.80
2018-02-13T14:36:42.255Z,9.10
2018-02-13T14:39:08.819Z,8.20
2018-02-13T14:41:35.391Z,10.07
2018-02-13T14:44:02.283Z,7.80
2018-02-13T14:46:28.851Z,9.67
2018-02-13T14:48:55.433Z,8.50
2018-02-13T14:51:22.016Z,8.77
2018-02-13T14:53:48.587Z,9.10
2018-02-13T14:56:15.483Z,12.10
2018-02-13T14:58:42.078Z,10.43
2018-02-13T15:01:08.654Z,7.43
2018-02-13T15:03:35.226Z,12.67
2018-02-13T15:06:01.811Z,8.70
2018-02-13T15:08:28.385Z,11.57
2018-02-13T15:10:54.963Z,10.80
2018-02-13T15:13:21.657Z,10.43
2018-02-13T15:15:48.711Z,10.43
2018-02-13T15:18:15.286Z,9.07
2018-02-13T15:20:41.880Z,7.97
2018-02-13T15:23:08.448Z,5.87
2018-02-13T15:25:35.014Z,11.63
2018-02-13T15:28:01.876Z,8.43
2018-02-13T15:30:28.450Z,14.43
2018-02-13T15:32:55.024Z,9.13
2018-02-13T15:35:21.619Z,10.03
2018-02-13T15:37:48.197Z,12.23
2018-02-13T15:40:14.762Z,9.27
2018-02-13T15:42:41.368Z,5.90
2018-02-13T15:45:07.939Z,9.90
2018-02-13T15:47:34.506Z,12.37
2018-02-13T15:50:01.100Z,10.63
2018-02-13T15:52:27.682Z,11.70
2018-02-13T15:54:54.246Z,10.77
2018-02-13T15:57:21.158Z,7.80
2018-02-13T15:59:47.730Z,10.00
2018-02-13T16:02:14.302Z,7.93
2018-02-13T16:04:41.155Z,12.60
2018-02-13T16:07:07.731Z,11.30
2018-02-13T16:09:34.306Z,16.10
2018-02-13T16:12:00.909Z,14.33
2018-02-13T16:14:27.487Z,16.37
2018-02-13T16:16:54.060Z,8.47
2018-02-13T16:19:20.680Z,10.50
2018-02-13T16:21:47.251Z,10.53
2018-02-13T16:24:13.824Z,8.57
2018-02-13T16:26:40.394Z,13.87
2018-02-13T16:29:06.966Z,10.97
2018-02-13T16:31:33.753Z,12.80
2018-02-13T16:34:00.327Z,10.17
2018-02-13T16:36:26.892Z,15.87
2018-02-13T16:38:53.579Z,10.73
2018-02-13T16:41:20.172Z,15.40
2018-02-13T16:43:46.744Z,8.87
2018-02-13T16:46:13.334Z,6.70
2018-02-13T16:48:39.902Z,9.33
2018-02-13T16:51:06.479Z,11.70
2018-02-13T16:53:33.876Z,15.07
2018-02-13T16:56:00.447Z,15.10
2018-02-13T16:58:27.022Z,11.67
2018-02-13T17:00:53.773Z,10.57
2018-02-13T17:03:20.325Z,13.10
2018-02-13T17:05:46.903Z,13.30
2018-02-13T17:08:13.699Z,17.03
2018-02-13T17:10:40.278Z,13.50
2018-02-13T17:13:06.858Z,11.10
2018-02-13T17:15:33.445Z,15.87
2018-02-13T17:18:00.023Z,13.23
2018-02-13T17:20:26.614Z,16.73
2018-02-13T17:22:53.191Z,20.10
2018-02-13T17:25:19.776Z,14.87
2018-02-13T17:27:46.387Z,18.30
2018-02-13T17:30:12.970Z,27.30
2018-02-13T17:32:39.551Z,17.40
2018-02-13T17:35:06.233Z,17.40
2018-02-13T17:37:32.818Z,16.90
2018-02-13T17:39:59.395Z,20.23
2018-02-13T17:42:26.003Z,15.63
2018-02-13T17:44:52.578Z,19.73
2018-02-13T17:47:19.158Z,16.17
2018-02-13T17:49:45.740Z,18.20
2018-02-13T17:52:12.322Z,17.67
2018-02-13T17:54:38.910Z,17.23
2018-02-13T17:57:05.482Z,15.80
2018-02-13T17:59:32.060Z,12.60
2018-02-13T18:01:58.754Z,17.50
2018-02-13T18:04:25.326Z,20.07
2018-02-13T18:06:51.902Z,18.43
2018-02-13T18:09:18.494Z,19.63
2018-02-13T18:11:45.087Z,20.90
2018-02-13T18:14:11.679Z,25.33
2018-02-13T18:16:38.580Z,17.17
2018-02-13T18:19:05.160Z,16.73
2018-02-13T18:21:31.955Z,16.57
2018-02-13T18:23:58.551Z,17.40
2018-02-13T18:26:25.126Z,16.67
2018-02-13T18:28:51.702Z,23.40
2018-02-13T18:31:18.298Z,13.60
2018-02-13T18:33:44.871Z,22.20
2018-02-13T18:36:11.457Z,17.33
2018-02-13T18:38:38.068Z,12.93
2018-02-13T18:41:04.634Z,18.67
2018-02-13T18:43:31.207Z,14.00
2018-02-13T18:45:57.782Z,17.73
2018-02-13T18:48:24.484Z,20.93
2018-02-13T18:50:51.059Z,18.00
2018-02-13T18:53:17.635Z,14.30
2018-02-13T18:55:44.238Z,17.90
2018-02-13T18:58:10.810Z,18.40
2018-02-13T19:00:37.411Z,18.37
2018-02-13T19:03:03.999Z,16.77
2018-02-13T19:05:30.571Z,14.47
2018-02-13T19:07:57.146Z,14.33
2018-02-13T19:10:23.944Z,14.97
2018-02-13T19:12:50.511Z,14.83
2018-02-13T19:15:17.822Z,15.73
2018-02-13T19:17:44.522Z,18.02
2018-02-13T19:20:11.094Z,17.40
2018-02-13T19:22:37.677Z,21.65
2018-02-13T19:25:04.279Z,20.90
2018-02-13T19:27:30.866Z,20.10
2018-02-13T19:29:57.455Z,17.65
2018-02-13T19:32:24.057Z,16.95
2018-02-13T19:34:50.646Z,16.02
2018-02-13T19:37:17.234Z,20.73
2018-02-13T19:39:44.086Z,19.77
2018-02-13T19:42:10.671Z,23.00
2018-02-13T19:44:37.267Z,19.55
2018-02-13T19:47:03.887Z,20.40
2018-02-13T19:49:30.471Z,17.15
2018-02-13T19:51:57.065Z,13.75
2018-02-13T19:54:23.687Z,17.77
2018-02-13T19:56:50.277Z,17.23
2018-02-13T19:59:16.863Z,16.87
2018-02-13T20:01:43.471Z,16.55
2018-02-13T20:04:10.054Z,18.80
2018-02-13T20:06:36.651Z,16.62
2018-02-13T20:09:04.144Z,17.73
2018-02-13T20:11:30.722Z,18.65
2018-02-13T20:13:57.311Z,20.05
2018-02-13T20:16:24.255Z,19.20
2018-02-13T20:18:50.835Z,17.35
2018-02-13T20:21:17.426Z,23.25
2018-02-13T20:23:44.262Z,17.02
2018-02-13T20:26:10.833Z,21.00
2018-02-13T20:28:37.440Z,17.20
2018-02-13T20:31:04.035Z,21.62
2018-02-13T20:33:30.608Z,16.02
2018-02-13T20:35:57.216Z,22.30
2018-02-13T20:38:24.568Z,19.60
2018-02-13T20:40:51.158Z,15.20
2018-02-13T20:43:17.758Z,13.75
2018-02-13T20:45:44.342Z,16.15
2018-02-13T20:48:10.927Z,15.48
2018-02-13T20:50:37.530Z,21.67
2018-02-13T20:53:04.114Z,17.37
2018-02-13T20:55:30.708Z,20.55
2018-02-13T20:57:57.323Z,20.45
2018-02-13T21:00:23.898Z,15.75
2018-02-13T21:02:50.484Z,16.33
2018-02-13T21:05:17.378Z,15.73
2018-02-13T21:07:43.954Z,17.37
2018-02-13T21:10:10.539Z,17.92
2018-02-13T21:12:37.139Z,15.50
2018-02-13T21:15:03.722Z,17.35
2018-02-13T21:17:30.302Z,13.07
2018-02-13T21:19:56.890Z,17.02
2018-02-13T21:22:23.495Z,21.33
2018-02-13T21:24:50.084Z,14.95
2018-02-13T21:27:16.662Z,17.73
2018-02-13T21:29:43.246Z,17.15
2018-02-13T21:32:09.837Z,17.80
2018-02-13T21:34:36.447Z,18.37
2018-02-13T21:37:03.043Z,17.50
2018-02-13T21:39:29.625Z,19.02
2018-02-13T21:41:56.230Z,18.42
2018-02-13T21:44:22.828Z,16.95
2018-02-13T21:46:49.404Z,15.65
2018-02-13T21:49:16.303Z,17.60
2018-02-13T21:51:42.885Z,20.62
2018-02-13T21:54:09.466Z,19.25
2018-02-13T21:56:36.157Z,17.33
2018-02-13T21:59:02.738Z,17.83
2018-02-13T22:01:29.314Z,16.65
2018-02-13T22:03:55.901Z,20.60
2018-02-13T22:06:22.507Z,23.52
2018-02-13T22:08:49.083Z,18.00
2018-02-13T22:11:15.671Z,22.52
2018-02-13T22:13:42.265Z,15.85
2018-02-13T22:16:08.846Z,18.40
2018-02-13T22:18:35.427Z,17.52
2018-02-13T22:21:02.047Z,18.02
2018-02-13T22:23:28.630Z,18.87
2018-02-13T22:25:55.216Z,17.73
2018-02-13T22:28:22.075Z,15.95
2018-02-13T22:30:48.654Z,18.52
2018-02-13T22:33:15.239Z,21.02
2018-02-13T22:35:41.838Z,18.45
2018-02-13T22:38:08.418Z,18.58
2018-02-13T22:40:35.000Z,28.85
2018-02-13T22:43:01.871Z,19.83
2018-02-13T22:45:28.446Z,18.73
2018-02-13T22:47:55.026Z,16.30
2018-02-13T22:50:21.710Z,16.12
2018-02-13T22:52:48.295Z,17.37
2018-02-13T22:55:14.867Z,15.65
2018-02-13T22:57:41.450Z,18.05
2018-02-13T23:00:08.031Z,14.05
2018-02-13T23:02:34.909Z,18.92
2018-02-13T23:05:01.443Z,16.27
2018-02-13T23:07:28.038Z,19.02
2018-02-13T23:09:54.914Z,15.90
2018-02-13T23:12:21.502Z,18.85
2018-02-13T23:14:48.084Z,17.70
2018-02-13T23:17:14.755Z,20.17
2018-02-13T23:19:41.339Z,17.95
2018-02-13T23:22:07.925Z,18.25
2018-02-13T23:24:34.814Z,16.87
2018-02-13T23:27:01.399Z,18.85
2018-02-13T23:29:27.981Z,20.40
2018-02-13T23:31:54.591Z,20.05
2018-02-13T23:34:21.181Z,16.62
2018-02-13T23:36:47.754Z,17.50
2018-02-13T23:39:14.331Z,20.45
2018-02-13T23:41:40.912Z,26.87
2018-02-13T23:44:07.527Z,18.60
2018-02-13T23:46:34.111Z,17.12
2018-02-13T23:49:00.683Z,20.17
2018-02-13T23:51:27.292Z,17.37
2018-02-13T23:53:53.862Z,14.40
2018-02-13T23:56:20.442Z,20.52
2018-02-13T23:58:47.030Z,17.92
